Homestead ARB Airport
KHST : now visible

Airfield :











YOU CAN JOIN US ON...

 
LOGIN :

Register | Disclaimer

   EN    FR    IT 

 









Legend :    VFR   Marginal VFR   IFR   Intensive IFR   Very Intensive IFR
Visi :
Ceiling :
>= 8 km
>= 3000ft
5 to 8 km
1000 to 3000 ft
1500m to 5 km
500 to 1000 ft
800 to 1500m
200 to 500 ft
< 800m
< 200 ft
Symbols :   Thunderstorms  Fog  Heavy snow  Heavy precipitations  Wind > 20 kt






- Airport Elevation : 5 ft


KHST - Homestead ARB

CURRENT METAR :
  • 021355Z AUTO 04015G21KT 10SM FEW028 25/19 A3022 RMK AO2 SLP237 T02530187

EXPIRED METARs :
  • 021255Z AUTO 04011KT 10SM SCT025 SCT031 24/19 A3020 RMK AO2 SLP230 T02380191
  • 021155Z 05010KT 10SM SCT025 BKN036 BKN050 24/19 A3019 RMK AO2A SLP227 70093 T02370192 10245 20229 52014
  • 021055Z AUTO 03009KT 10SM FEW027 23/19 A3017 RMK AO2 SLP220 T02290190

TAF TAF KHST
Valid from the 02 at 12:00 until the 03 at 18:00 UTC


021200Z 0212/0318 05012KT 9999 VCSH SCT025 SCT035 QNH3019INS
BECMG 0214/0215 06012G22KT 9999 NSW SCT025 SCT035 QNH3018INS
TEMPO 0216/0223 06015G25KT
BECMG 0223/0224 07012KT 9999 SCT025 SCT035 QNH3020INS TX27/0220Z TN23/0310Z
KZMA FIR / North America



MET'MAP, your aeronautical weather chart ! - Copyright ORBIFLY December 2007 - Disclaimer

ORBIFLY MET'MAP TEAM :

Programming & Development : Alexandra Zaïnal
Original concept : Baudouin d'Aumeries
Technical & hardware support : Manuel Goepfert
Assistance : Marc-Olivier Méhu




SOURCES & CREDITS :

   NOAA       Earth
Advisory